createdAt,value
2019-03-15T00:01:36.744Z,14.80
2019-03-15T00:04:06.328Z,13.87
2019-03-15T00:06:34.938Z,11.37
2019-03-15T00:09:04.944Z,19.23
2019-03-15T00:11:33.660Z,12.63
2019-03-15T00:14:02.140Z,13.33
2019-03-15T00:16:30.614Z,13.60
2019-03-15T00:18:59.107Z,15.63
2019-03-15T00:21:27.676Z,8.17
2019-03-15T00:23:56.052Z,12.57
2019-03-15T00:26:24.893Z,13.57
2019-03-15T00:28:53.389Z,8.47
2019-03-15T00:31:21.929Z,13.07
2019-03-15T00:33:50.756Z,18.47
2019-03-15T00:36:19.767Z,12.00
2019-03-15T00:38:48.562Z,15.87
2019-03-15T00:41:17.083Z,10.37
2019-03-15T00:43:49.067Z,15.57
2019-03-15T00:46:16.039Z,16.97
2019-03-15T00:48:44.417Z,19.87
2019-03-15T00:51:13.178Z,20.33
2019-03-15T00:53:41.679Z,13.47
2019-03-15T00:56:10.353Z,16.40
2019-03-15T00:58:38.800Z,18.00
2019-03-15T01:01:07.306Z,10.83
2019-03-15T01:03:36.030Z,11.97
2019-03-15T01:06:05.472Z,9.63
2019-03-15T01:08:33.967Z,10.83
2019-03-15T01:11:02.400Z,15.40
2019-03-15T01:13:30.813Z,11.60
2019-03-15T01:15:59.358Z,6.47
2019-03-15T01:18:28.108Z,8.13
2019-03-15T01:20:56.535Z,12.53
2019-03-15T01:23:25.028Z,11.53
2019-03-15T01:25:53.720Z,18.30
2019-03-15T01:28:22.452Z,18.73
2019-03-15T01:30:50.931Z,14.23
2019-03-15T01:33:19.363Z,18.33
2019-03-15T01:35:47.813Z,14.93
2019-03-15T01:38:16.941Z,13.53
2019-03-15T01:40:48.513Z,13.33
2019-03-15T01:43:15.714Z,11.87
2019-03-15T01:45:44.188Z,13.47
2019-03-15T01:48:12.670Z,12.20
2019-03-15T01:50:41.100Z,19.97
2019-03-15T01:53:09.575Z,21.20
2019-03-15T01:55:38.028Z,16.03
2019-03-15T01:58:06.781Z,13.70
2019-03-15T02:00:35.593Z,16.80
2019-03-15T02:03:04.455Z,18.87
2019-03-15T02:05:32.880Z,12.73
2019-03-15T02:08:01.343Z,14.30
2019-03-15T02:10:29.802Z,9.07
2019-03-15T02:12:58.552Z,33.77
2019-03-15T02:15:28.125Z,21.77
2019-03-15T02:17:56.660Z,12.87
2019-03-15T02:20:26.143Z,13.37
2019-03-15T02:22:54.669Z,19.97
2019-03-15T02:25:23.462Z,13.60
2019-03-15T02:27:51.952Z,23.27
2019-03-15T02:30:20.411Z,9.30
2019-03-15T02:32:49.268Z,14.70
2019-03-15T02:35:17.725Z,11.70
2019-03-15T02:37:46.180Z,12.63
2019-03-15T02:40:14.699Z,12.77
2019-03-15T02:42:43.141Z,13.70
2019-03-15T02:45:11.638Z,8.50
2019-03-15T02:47:40.175Z,15.97
2019-03-15T02:50:08.628Z,12.97
2019-03-15T02:52:37.129Z,19.13
2019-03-15T02:55:05.672Z,13.33
2019-03-15T02:57:35.577Z,7.67
2019-03-15T03:00:04.607Z,15.37
2019-03-15T03:02:34.187Z,8.07
2019-03-15T03:05:02.728Z,14.27
2019-03-15T03:07:32.185Z,11.47
2019-03-15T03:10:01.653Z,11.13
2019-03-15T03:12:30.975Z,16.73
2019-03-15T03:14:59.362Z,17.13
2019-03-15T03:17:27.995Z,16.43
2019-03-15T03:19:56.353Z,12.97
2019-03-15T03:22:24.960Z,19.37
2019-03-15T03:24:53.375Z,21.43
2019-03-15T03:27:21.835Z,11.87
2019-03-15T03:29:50.296Z,16.20
2019-03-15T03:32:18.724Z,11.33
2019-03-15T03:34:47.240Z,16.23
2019-03-15T03:37:15.832Z,17.50
2019-03-15T03:39:44.369Z,14.20
2019-03-15T03:42:15.410Z,11.00
2019-03-15T03:44:43.932Z,11.17
2019-03-15T03:47:12.359Z,12.10
2019-03-15T03:49:40.835Z,19.97
2019-03-15T03:52:09.215Z,17.97
2019-03-15T03:54:39.011Z,13.37
2019-03-15T03:57:07.732Z,7.67
2019-03-15T03:59:36.199Z,11.33
2019-03-15T04:02:04.942Z,9.23
2019-03-15T04:04:33.447Z,10.83
2019-03-15T04:07:01.946Z,9.70
2019-03-15T04:09:30.591Z,12.60
2019-03-15T04:11:59.084Z,10.47
2019-03-15T04:14:27.636Z,11.83
2019-03-15T04:16:56.075Z,19.53
2019-03-15T04:19:24.917Z,10.67
2019-03-15T04:21:53.340Z,8.37
2019-03-15T04:24:21.904Z,14.93
2019-03-15T04:26:50.637Z,10.53
2019-03-15T04:29:19.421Z,7.67
2019-03-15T04:31:47.894Z,8.53
2019-03-15T04:34:16.378Z,13.77
2019-03-15T04:36:45.163Z,13.23
2019-03-15T04:39:14.163Z,14.03
2019-03-15T04:41:42.804Z,11.73
2019-03-15T04:44:11.570Z,8.97
2019-03-15T04:46:40.031Z,7.23
2019-03-15T04:49:08.541Z,14.00
2019-03-15T04:51:36.912Z,12.70
2019-03-15T04:54:05.877Z,10.63
2019-03-15T04:56:34.465Z,18.77
2019-03-15T04:59:02.938Z,13.57
2019-03-15T05:01:31.435Z,11.77
2019-03-15T05:03:59.919Z,17.43
2019-03-15T05:06:28.405Z,8.03
2019-03-15T05:08:56.735Z,17.03
2019-03-15T05:11:25.140Z,9.40
2019-03-15T05:13:53.507Z,14.57
2019-03-15T05:16:22.211Z,11.57
2019-03-15T05:18:50.593Z,14.40
2019-03-15T05:21:19.006Z,10.93
2019-03-15T05:23:47.661Z,8.70
2019-03-15T05:26:16.063Z,16.33
2019-03-15T05:28:44.448Z,9.93
2019-03-15T05:31:13.176Z,13.27
2019-03-15T05:33:41.522Z,12.20
2019-03-15T05:36:10.024Z,11.87
2019-03-15T05:38:38.480Z,10.30
2019-03-15T05:41:06.969Z,5.50
2019-03-15T05:43:35.427Z,10.07
2019-03-15T05:46:03.873Z,13.10
2019-03-15T05:48:32.255Z,14.30
2019-03-15T05:51:00.955Z,6.70
2019-03-15T05:53:31.487Z,13.00
2019-03-15T05:55:59.984Z,12.90
2019-03-15T05:58:28.448Z,16.23
2019-03-15T06:00:56.905Z,9.83
2019-03-15T06:03:25.351Z,8.30
2019-03-15T06:05:54.103Z,13.67
2019-03-15T06:08:22.592Z,10.83
2019-03-15T06:10:51.003Z,12.47
2019-03-15T06:13:19.484Z,9.50
2019-03-15T06:15:48.155Z,9.93
2019-03-15T06:18:16.640Z,8.23
2019-03-15T06:20:45.276Z,9.60
2019-03-15T06:23:16.764Z,12.90
2019-03-15T06:25:43.965Z,10.80
2019-03-15T06:28:12.748Z,12.63
2019-03-15T06:30:41.266Z,13.13
2019-03-15T06:33:09.640Z,12.20
2019-03-15T06:35:38.185Z,10.47
2019-03-15T06:38:06.547Z,9.10
2019-03-15T06:40:35.038Z,12.23
2019-03-15T06:43:03.442Z,7.00
2019-03-15T06:45:32.114Z,19.27
2019-03-15T06:48:00.903Z,7.40
2019-03-15T06:50:29.557Z,10.37
2019-03-15T06:52:58.323Z,16.67
2019-03-15T06:55:26.782Z,9.37
2019-03-15T06:57:55.383Z,11.93
2019-03-15T07:00:23.879Z,18.70
2019-03-15T07:02:52.349Z,11.40
2019-03-15T07:05:20.996Z,12.67
2019-03-15T07:07:49.747Z,20.37
2019-03-15T07:10:18.228Z,16.37
2019-03-15T07:12:46.982Z,13.57
2019-03-15T07:15:15.422Z,16.13
2019-03-15T07:17:43.935Z,22.07
2019-03-15T07:20:12.379Z,20.80
2019-03-15T07:22:40.870Z,18.07
2019-03-15T07:25:09.423Z,16.17
2019-03-15T07:27:37.859Z,15.67
2019-03-15T07:30:06.604Z,20.23
2019-03-15T07:32:35.315Z,19.63
2019-03-15T07:35:03.787Z,20.10
2019-03-15T07:37:32.166Z,16.40
2019-03-15T07:40:01.007Z,18.70
2019-03-15T07:42:29.403Z,21.00
2019-03-15T07:44:57.804Z,19.13
2019-03-15T07:47:26.523Z,20.07
2019-03-15T07:49:55.979Z,15.97
2019-03-15T07:52:24.454Z,14.77
2019-03-15T07:54:52.929Z,19.50
2019-03-15T07:57:21.288Z,17.17
2019-03-15T07:59:49.765Z,16.47
2019-03-15T08:02:18.375Z,21.00
2019-03-15T08:04:46.874Z,21.13
2019-03-15T08:07:20.021Z,11.33
2019-03-15T08:09:45.780Z,18.03
2019-03-15T08:12:14.215Z,19.03
2019-03-15T08:14:42.614Z,7.30
2019-03-15T08:17:10.947Z,26.20
2019-03-15T08:19:39.390Z,18.13
2019-03-15T08:22:08.007Z,19.03
2019-03-15T08:24:36.822Z,24.77
2019-03-15T08:27:05.375Z,14.77
2019-03-15T08:29:33.731Z,14.17
2019-03-15T08:32:02.371Z,15.67
2019-03-15T08:34:30.795Z,12.60
2019-03-15T08:36:59.295Z,17.30
2019-03-15T08:39:27.738Z,10.87
2019-03-15T08:41:56.123Z,14.00
2019-03-15T08:44:24.521Z,25.80
2019-03-15T08:46:52.940Z,21.83
2019-03-15T08:49:21.401Z,16.53
2019-03-15T08:52:03.437Z,16.93
2019-03-15T08:54:23.444Z,21.97
2019-03-15T08:56:51.869Z,18.57
2019-03-15T08:59:21.442Z,19.30
2019-03-15T09:01:49.839Z,21.70
2019-03-15T09:04:21.338Z,15.93
2019-03-15T09:06:48.692Z,26.47
2019-03-15T09:09:18.199Z,10.47
2019-03-15T09:11:46.725Z,20.50
2019-03-15T09:14:15.231Z,25.23
2019-03-15T09:16:43.661Z,22.07
2019-03-15T09:19:12.051Z,15.20
2019-03-15T09:21:40.544Z,16.33
2019-03-15T09:24:09.019Z,20.67
2019-03-15T09:26:37.762Z,29.40
2019-03-15T09:29:08.618Z,38.17
2019-03-15T09:31:47.505Z,28.77
2019-03-15T09:34:14.560Z,23.20
2019-03-15T09:36:49.973Z,26.30
2019-03-15T09:39:14.314Z,21.50
2019-03-15T09:41:42.703Z,25.27
2019-03-15T09:44:11.436Z,19.90
2019-03-15T09:46:39.859Z,21.97
2019-03-15T09:49:08.332Z,19.80
2019-03-15T09:51:36.815Z,16.33
2019-03-15T09:54:05.210Z,19.00
2019-03-15T09:56:33.901Z,12.10
2019-03-15T09:59:02.336Z,24.03
2019-03-15T10:01:35.266Z,9.07
2019-03-15T10:04:01.010Z,19.03
2019-03-15T10:06:29.659Z,14.13
2019-03-15T10:08:58.176Z,19.07
2019-03-15T10:11:26.556Z,14.30
2019-03-15T10:13:55.291Z,13.13
2019-03-15T10:16:23.727Z,16.10
2019-03-15T10:18:52.195Z,9.33
2019-03-15T10:21:20.608Z,15.97
2019-03-15T10:23:49.103Z,16.23
2019-03-15T10:26:17.440Z,9.90
2019-03-15T10:28:45.826Z,9.40
2019-03-15T10:31:14.293Z,15.13
2019-03-15T10:33:50.470Z,18.07
2019-03-15T10:36:12.751Z,15.27
2019-03-15T10:38:41.230Z,11.47
2019-03-15T10:41:09.702Z,9.30
2019-03-15T10:43:38.223Z,6.57
2019-03-15T10:46:07.720Z,11.33
2019-03-15T10:48:36.329Z,13.63
2019-03-15T10:51:04.758Z,12.70
2019-03-15T10:53:33.251Z,13.80
2019-03-15T10:56:02.408Z,17.77
2019-03-15T10:58:30.820Z,15.83
2019-03-15T11:00:59.221Z,17.63
2019-03-15T11:03:28.589Z,20.23
2019-03-15T11:05:57.379Z,16.17
2019-03-15T11:08:26.186Z,18.70
2019-03-15T11:10:54.849Z,18.23
2019-03-15T11:13:23.786Z,19.10
2019-03-15T11:15:52.410Z,18.43
2019-03-15T11:18:21.935Z,15.63
2019-03-15T11:20:50.483Z,23.80
2019-03-15T11:23:18.867Z,23.60
2019-03-15T11:25:47.551Z,18.30
2019-03-15T11:28:16.150Z,18.00
2019-03-15T11:30:45.132Z,22.87
2019-03-15T11:33:13.560Z,16.50
2019-03-15T11:35:42.070Z,19.73
2019-03-15T11:38:10.462Z,14.10
2019-03-15T11:40:38.862Z,18.10
2019-03-15T11:43:07.566Z,20.80
2019-03-15T11:45:36.051Z,20.37
2019-03-15T11:48:04.901Z,21.20
2019-03-15T11:50:33.453Z,20.23
2019-03-15T11:53:01.910Z,17.47
2019-03-15T11:55:30.565Z,19.13
2019-03-15T11:58:00.048Z,20.47
2019-03-15T12:00:28.772Z,17.43
2019-03-15T12:02:57.261Z,14.23
2019-03-15T12:05:26.062Z,13.03
2019-03-15T12:07:54.595Z,12.83
2019-03-15T12:10:23.086Z,14.93
2019-03-15T12:12:51.641Z,13.27
2019-03-15T12:15:20.096Z,9.63
2019-03-15T12:17:48.589Z,11.13
2019-03-15T12:20:17.050Z,14.40
2019-03-15T12:22:45.466Z,8.53
2019-03-15T12:25:13.960Z,10.70
2019-03-15T12:27:42.443Z,6.73
2019-03-15T12:30:11.020Z,18.47
2019-03-15T12:32:39.563Z,11.13
2019-03-15T12:35:09.167Z,11.67
2019-03-15T12:37:37.693Z,16.33
2019-03-15T12:40:06.775Z,8.90
2019-03-15T12:42:35.142Z,12.37
2019-03-15T12:45:03.880Z,12.50
2019-03-15T12:47:32.319Z,9.17
2019-03-15T12:50:00.688Z,10.47
2019-03-15T12:52:29.682Z,11.17
2019-03-15T12:54:58.200Z,11.90
2019-03-15T12:57:26.631Z,7.47
2019-03-15T12:59:55.163Z,10.43
2019-03-15T13:02:23.622Z,11.63
2019-03-15T13:04:52.312Z,12.03
2019-03-15T13:07:20.786Z,9.50
2019-03-15T13:09:49.448Z,13.13
2019-03-15T13:12:17.935Z,11.50
2019-03-15T13:14:46.464Z,8.77
2019-03-15T13:17:14.913Z,12.77
2019-03-15T13:19:54.667Z,9.87
2019-03-15T13:22:13.467Z,8.23
2019-03-15T13:24:41.951Z,9.00
2019-03-15T13:27:10.419Z,7.47
2019-03-15T13:29:38.865Z,10.00
2019-03-15T13:32:07.341Z,9.90
2019-03-15T13:34:35.806Z,14.10
2019-03-15T13:37:04.263Z,7.80
2019-03-15T13:39:32.742Z,9.47
2019-03-15T13:42:01.153Z,8.47
2019-03-15T13:44:29.508Z,10.33
2019-03-15T13:46:58.195Z,6.33
2019-03-15T13:49:27.767Z,7.40
2019-03-15T13:51:56.146Z,8.40
2019-03-15T13:54:24.671Z,10.33
2019-03-15T13:56:53.036Z,14.03
2019-03-15T13:59:21.758Z,11.70
2019-03-15T14:01:50.108Z,10.87
2019-03-15T14:04:18.622Z,9.77
2019-03-15T14:06:47.099Z,10.37
2019-03-15T14:09:15.659Z,4.37
2019-03-15T14:11:44.507Z,8.27
2019-03-15T14:14:13.375Z,9.27
2019-03-15T14:16:41.732Z,7.07
2019-03-15T14:19:10.127Z,7.13
2019-03-15T14:21:38.909Z,3.37
2019-03-15T14:24:07.405Z,3.03
2019-03-15T14:26:35.836Z,4.73
2019-03-15T14:29:04.320Z,4.57
2019-03-15T14:31:32.859Z,6.57
2019-03-15T14:34:01.344Z,5.67
2019-03-15T14:36:30.276Z,7.07
2019-03-15T14:38:58.685Z,4.90
2019-03-15T14:41:27.441Z,5.70
2019-03-15T14:43:56.232Z,6.23
2019-03-15T14:46:24.666Z,3.13
2019-03-15T14:48:53.031Z,5.87
2019-03-15T14:51:21.479Z,5.00
2019-03-15T14:53:50.270Z,5.57
2019-03-15T14:56:19.333Z,6.10
2019-03-15T14:58:48.021Z,8.07
2019-03-15T15:01:16.457Z,7.73
2019-03-15T15:03:45.130Z,5.87
2019-03-15T15:06:13.624Z,8.37
2019-03-15T15:08:42.091Z,6.77
2019-03-15T15:11:10.559Z,4.77
2019-03-15T15:13:39.020Z,4.30
2019-03-15T15:16:07.743Z,4.73
2019-03-15T15:18:36.212Z,7.40
2019-03-15T15:21:04.679Z,6.03
2019-03-15T15:23:34.814Z,6.80
2019-03-15T15:26:03.499Z,3.47
2019-03-15T15:28:31.965Z,5.47
2019-03-15T15:31:00.439Z,6.63
2019-03-15T15:33:28.896Z,7.17
2019-03-15T15:35:57.664Z,13.90
2019-03-15T15:38:26.495Z,5.57
2019-03-15T15:40:55.935Z,6.53
2019-03-15T15:43:24.337Z,4.70
2019-03-15T15:45:52.752Z,5.10
2019-03-15T15:48:21.439Z,9.73
2019-03-15T15:50:49.877Z,9.87
2019-03-15T15:53:18.287Z,6.27
2019-03-15T15:55:46.774Z,8.97
2019-03-15T15:58:18.240Z,6.90
2019-03-15T16:00:45.527Z,8.43
2019-03-15T16:03:14.023Z,10.40
2019-03-15T16:05:42.464Z,9.03
2019-03-15T16:08:11.126Z,6.43
2019-03-15T16:10:39.529Z,5.90
2019-03-15T16:13:17.206Z,6.57
2019-03-15T16:15:38.138Z,7.83
2019-03-15T16:18:06.661Z,5.87
2019-03-15T16:20:35.291Z,10.23
2019-03-15T16:23:04.028Z,6.70
2019-03-15T16:25:32.521Z,6.63
2019-03-15T16:28:01.511Z,6.00
2019-03-15T16:30:30.104Z,8.03
2019-03-15T16:32:58.653Z,8.20
2019-03-15T16:35:27.379Z,11.60
2019-03-15T16:37:55.859Z,12.17
2019-03-15T16:40:24.619Z,11.67
2019-03-15T16:42:53.398Z,9.33
2019-03-15T16:45:21.939Z,11.17
2019-03-15T16:47:50.410Z,9.40
2019-03-15T16:50:18.940Z,7.13
2019-03-15T16:52:47.582Z,8.77
2019-03-15T16:55:16.154Z,10.70
2019-03-15T16:57:44.563Z,6.70
2019-03-15T17:00:13.067Z,9.07
2019-03-15T17:02:41.813Z,11.33
2019-03-15T17:05:10.606Z,5.87
2019-03-15T17:07:39.190Z,7.43
2019-03-15T17:10:08.411Z,6.33
2019-03-15T17:12:36.943Z,8.87
2019-03-15T17:15:05.704Z,4.80
2019-03-15T17:17:34.169Z,7.17
2019-03-15T17:20:02.673Z,6.47
2019-03-15T17:22:31.166Z,8.20
2019-03-15T17:24:59.630Z,17.37
2019-03-15T17:27:28.092Z,18.17
2019-03-15T17:29:56.494Z,25.83
2019-03-15T17:32:24.910Z,20.83
2019-03-15T17:34:53.438Z,18.63
2019-03-15T17:37:21.982Z,14.03
2019-03-15T17:39:50.593Z,10.50
2019-03-15T17:42:19.796Z,7.23
2019-03-15T17:44:48.310Z,7.57
2019-03-15T17:47:16.815Z,6.40
2019-03-15T17:49:45.295Z,5.63
2019-03-15T17:52:13.699Z,7.70
2019-03-15T17:54:42.183Z,6.37
2019-03-15T17:57:10.884Z,4.13
2019-03-15T17:59:39.402Z,6.77
2019-03-15T18:02:08.123Z,9.30
2019-03-15T18:04:36.599Z,7.87
2019-03-15T18:07:05.342Z,7.33
2019-03-15T18:09:34.639Z,9.17
2019-03-15T18:12:03.072Z,9.20
2019-03-15T18:14:31.524Z,4.73
2019-03-15T18:16:59.972Z,8.63
2019-03-15T18:19:29.272Z,11.50
2019-03-15T18:21:57.643Z,4.00
2019-03-15T18:24:26.420Z,4.77
2019-03-15T18:26:55.156Z,7.27
2019-03-15T18:29:26.561Z,2.67
2019-03-15T18:31:53.906Z,6.70
2019-03-15T18:34:22.372Z,3.90
2019-03-15T18:36:50.835Z,2.70
2019-03-15T18:39:19.640Z,6.17
2019-03-15T18:41:50.507Z,4.70
2019-03-15T18:44:18.216Z,5.10
2019-03-15T18:46:46.813Z,3.80
2019-03-15T18:49:18.538Z,5.60
2019-03-15T18:51:45.783Z,3.10
2019-03-15T18:54:17.813Z,7.20
2019-03-15T18:56:45.277Z,2.00
2019-03-15T18:59:13.879Z,4.30
2019-03-15T19:01:42.441Z,6.33
2019-03-15T19:04:10.928Z,8.73
2019-03-15T19:06:39.357Z,7.77
2019-03-15T19:09:08.173Z,5.47
2019-03-15T19:11:36.794Z,3.97
2019-03-15T19:14:05.252Z,3.10
2019-03-15T19:16:33.816Z,5.93
2019-03-15T19:19:02.528Z,5.17
2019-03-15T19:21:30.992Z,5.83
2019-03-15T19:23:59.359Z,4.23
2019-03-15T19:26:29.101Z,5.27
2019-03-15T19:28:57.684Z,5.63
2019-03-15T19:31:26.851Z,8.87
2019-03-15T19:33:55.270Z,9.43
2019-03-15T19:36:23.859Z,7.53
2019-03-15T19:38:52.467Z,8.07
2019-03-15T19:41:21.172Z,5.07
2019-03-15T19:43:49.612Z,5.80
2019-03-15T19:46:18.286Z,3.27
2019-03-15T19:48:46.778Z,3.37
2019-03-15T19:51:15.295Z,6.80
2019-03-15T19:53:43.843Z,5.77
2019-03-15T19:56:12.319Z,5.50
2019-03-15T20:01:30.934Z,5.97
2019-03-15T20:06:49.969Z,10.83
2019-03-15T20:09:18.723Z,6.50
2019-03-15T20:11:47.313Z,5.60
2019-03-15T20:14:15.686Z,7.00
2019-03-15T20:16:44.105Z,6.57
2019-03-15T20:19:12.590Z,2.63
2019-03-15T20:21:41.012Z,7.20
2019-03-15T20:24:09.498Z,5.53
2019-03-15T20:26:37.851Z,6.73
2019-03-15T20:29:06.374Z,5.10
2019-03-15T20:31:34.807Z,6.20
2019-03-15T20:34:03.276Z,8.57
2019-03-15T20:36:31.619Z,5.47
2019-03-15T20:38:59.976Z,8.93
2019-03-15T20:41:28.491Z,8.87
2019-03-15T20:44:00.360Z,8.63
2019-03-15T20:46:35.669Z,6.07
2019-03-15T20:48:57.633Z,8.07
2019-03-15T20:51:26.232Z,7.50
2019-03-15T20:53:54.712Z,10.30
2019-03-15T20:56:23.202Z,4.67
2019-03-15T20:58:51.713Z,5.70
2019-03-15T21:01:20.448Z,6.87
2019-03-15T21:03:56.039Z,5.20
2019-03-15T21:06:19.680Z,6.77
2019-03-15T21:08:48.150Z,5.27
2019-03-15T21:11:16.512Z,6.67
2019-03-15T21:13:44.973Z,9.83
2019-03-15T21:16:13.740Z,5.67
2019-03-15T21:18:42.176Z,9.93
2019-03-15T21:21:10.704Z,15.50
2019-03-15T21:23:39.126Z,7.03
2019-03-15T21:26:07.830Z,6.50
2019-03-15T21:28:36.288Z,7.00
2019-03-15T21:31:04.745Z,3.93
2019-03-15T21:33:33.494Z,6.17
2019-03-15T21:36:01.917Z,4.60
2019-03-15T21:38:30.591Z,6.03
2019-03-15T21:40:59.217Z,7.27
2019-03-15T21:43:27.580Z,4.13
2019-03-15T21:45:56.054Z,6.47
2019-03-15T21:48:24.524Z,7.97
2019-03-15T21:50:52.897Z,3.43
2019-03-15T21:53:21.261Z,7.47
2019-03-15T21:55:49.985Z,5.07
2019-03-15T21:58:18.355Z,7.43
2019-03-15T22:00:46.733Z,5.47
2019-03-15T22:03:15.215Z,5.53
2019-03-15T22:05:44.016Z,9.50
2019-03-15T22:08:12.486Z,9.77
2019-03-15T22:10:41.162Z,5.07
2019-03-15T22:13:09.671Z,7.30
2019-03-15T22:15:38.109Z,13.40
2019-03-15T22:18:06.774Z,4.97
2019-03-15T22:20:35.420Z,5.73
2019-03-15T22:23:03.841Z,5.47
2019-03-15T22:25:32.340Z,8.97
2019-03-15T22:28:00.720Z,7.63
2019-03-15T22:30:29.171Z,4.47
2019-03-15T22:32:57.651Z,8.83
2019-03-15T22:35:26.330Z,2.03
2019-03-15T22:37:55.348Z,8.73
2019-03-15T22:40:32.409Z,11.27
2019-03-15T22:43:01.044Z,5.23
2019-03-15T22:54:03.038Z,8.13
2019-03-15T22:56:31.438Z,13.00
2019-03-15T22:58:59.848Z,8.83
2019-03-15T23:01:30.415Z,7.33
2019-03-15T23:03:59.249Z,2.87
2019-03-15T23:06:27.605Z,7.30
2019-03-15T23:08:55.950Z,9.37
2019-03-15T23:11:24.425Z,4.73
2019-03-15T23:13:52.819Z,6.83
2019-03-15T23:16:21.466Z,6.97
2019-03-15T23:18:50.171Z,7.30
2019-03-15T23:21:18.640Z,5.03
2019-03-15T23:23:47.059Z,6.20
2019-03-15T23:26:15.930Z,9.30
2019-03-15T23:28:47.145Z,6.63
2019-03-15T23:31:14.685Z,6.90
2019-03-15T23:33:43.069Z,7.37
2019-03-15T23:36:11.535Z,7.77
2019-03-15T23:38:39.932Z,6.33
2019-03-15T23:41:08.291Z,6.60
2019-03-15T23:43:37.009Z,7.33
2019-03-15T23:46:05.462Z,6.13
2019-03-15T23:48:33.959Z,9.77
2019-03-15T23:51:02.325Z,9.43
2019-03-15T23:53:31.098Z,4.97
2019-03-15T23:55:59.640Z,6.97
2019-03-15T23:58:28.167Z,14.63
